createdAt,value
2023-05-17T00:05:01.735Z,1.70
2023-05-17T00:10:06.173Z,2.65
2023-05-17T00:15:09.085Z,1.35
2023-05-17T00:20:12.154Z,2.15
2023-05-17T00:25:16.086Z,3.13
2023-05-17T00:30:18.696Z,2.30
2023-05-17T00:35:21.575Z,2.53
2023-05-17T00:40:25.710Z,3.38
2023-05-17T00:45:28.528Z,4.80
2023-05-17T00:50:31.695Z,1.50
2023-05-17T00:55:36.018Z,5.07
2023-05-17T01:00:38.868Z,4.95
2023-05-17T01:05:41.572Z,3.28
2023-05-17T01:11:01.221Z,3.20
2023-05-17T01:16:11.083Z,2.92
2023-05-17T01:21:26.288Z,1.92
2023-05-17T01:26:37.180Z,3.65
2023-05-17T01:31:40.274Z,3.78
2023-05-17T01:36:43.339Z,1.80
2023-05-17T01:41:50.042Z,2.78
2023-05-17T01:46:56.117Z,1.10
2023-05-17T01:51:59.615Z,3.72
2023-05-17T01:57:05.773Z,2.38
2023-05-17T02:02:09.107Z,2.40
2023-05-17T02:07:11.971Z,4.10
2023-05-17T02:12:15.978Z,1.85
2023-05-17T02:17:18.708Z,0.77
2023-05-17T02:22:21.485Z,1.70
2023-05-17T02:27:25.536Z,1.45
2023-05-17T02:32:29.194Z,1.42
2023-05-17T02:37:31.863Z,2.45
2023-05-17T02:42:35.881Z,2.40
2023-05-17T02:47:38.767Z,2.55
2023-05-17T02:52:41.496Z,3.00
2023-05-17T02:57:46.070Z,4.47
2023-05-17T03:02:48.929Z,2.50
2023-05-17T03:07:51.723Z,2.38
2023-05-17T03:12:55.804Z,4.03
2023-05-17T03:18:01.504Z,2.85
2023-05-17T03:23:04.713Z,3.38
2023-05-17T03:28:10.973Z,7.72
2023-05-17T03:33:13.909Z,2.10
2023-05-17T03:38:16.872Z,2.58
2023-05-17T03:43:21.250Z,2.00
2023-05-17T03:48:24.838Z,3.53
2023-05-17T03:53:29.022Z,4.90
2023-05-17T03:58:33.671Z,3.95
2023-05-17T04:03:37.375Z,3.53
2023-05-17T04:08:40.396Z,5.32
2023-05-17T04:13:44.452Z,4.03
2023-05-17T04:18:47.741Z,4.32
2023-05-17T04:23:50.469Z,3.95
2023-05-17T04:28:54.714Z,3.17
2023-05-17T04:33:58.821Z,5.00
2023-05-17T04:39:03.429Z,4.15
2023-05-17T04:44:08.511Z,6.65
2023-05-17T04:49:12.167Z,3.92
2023-05-17T04:54:14.963Z,6.60
2023-05-17T04:59:19.334Z,5.97
2023-05-17T05:04:22.006Z,7.78
2023-05-17T05:09:25.409Z,4.47
2023-05-17T05:14:29.946Z,3.95
2023-05-17T05:19:32.775Z,5.18
2023-05-17T05:24:36.525Z,7.25
2023-05-17T05:29:42.533Z,7.45
2023-05-17T05:34:45.557Z,6.28
2023-05-17T05:39:48.290Z,7.07
2023-05-17T05:44:52.592Z,7.43
2023-05-17T05:49:57.465Z,6.82
2023-05-17T05:55:00.529Z,9.05
2023-05-17T06:00:05.885Z,11.57
2023-05-17T06:05:15.457Z,5.97
2023-05-17T06:10:18.208Z,8.13
2023-05-17T06:15:22.276Z,9.25
2023-05-17T06:20:24.887Z,3.85
2023-05-17T06:25:27.624Z,10.60
2023-05-17T06:30:32.071Z,11.43
2023-05-17T06:35:47.622Z,10.38
2023-05-17T06:40:58.582Z,10.68
2023-05-17T06:46:02.769Z,6.15
2023-05-17T06:51:05.489Z,5.07
2023-05-17T06:56:08.397Z,7.97
2023-05-17T07:01:12.825Z,7.32
2023-05-17T07:06:15.622Z,7.55
2023-05-17T07:11:19.646Z,8.52
2023-05-17T07:16:24.686Z,5.22
2023-05-17T07:21:27.411Z,9.20
2023-05-17T07:26:35.073Z,10.43
2023-05-17T07:31:39.175Z,7.13
2023-05-17T07:36:41.783Z,8.57
2023-05-17T07:41:44.467Z,11.27
2023-05-17T07:46:50.755Z,8.30
2023-05-17T07:51:53.384Z,9.30
2023-05-17T07:56:56.291Z,8.77
2023-05-17T08:02:11.758Z,7.95
2023-05-17T08:07:21.237Z,8.88
2023-05-17T08:12:24.426Z,6.93
2023-05-17T08:17:28.511Z,5.53
2023-05-17T08:22:31.188Z,7.40
2023-05-17T08:27:34.082Z,4.72
2023-05-17T08:32:38.153Z,8.77
2023-05-17T08:37:40.870Z,16.08
2023-05-17T08:42:43.855Z,3.30
2023-05-17T08:47:49.186Z,6.97
2023-05-17T08:52:52.410Z,4.07
2023-05-17T08:57:55.622Z,4.95
2023-05-17T09:03:00.767Z,6.55
2023-05-17T09:08:03.674Z,7.15
2023-05-17T09:13:06.576Z,12.43
2023-05-17T09:18:11.659Z,10.38
2023-05-17T09:23:14.600Z,5.10
2023-05-17T09:28:19.373Z,3.92
2023-05-17T09:33:23.780Z,5.38
2023-05-17T09:38:26.814Z,5.90
2023-05-17T09:43:30.190Z,7.97
2023-05-17T09:48:34.299Z,4.78
2023-05-17T09:53:39.994Z,5.78
2023-05-17T09:58:43.552Z,8.55
2023-05-17T10:03:47.610Z,7.15
2023-05-17T10:08:52.873Z,6.18
2023-05-17T10:13:59.414Z,6.63
2023-05-17T10:19:04.308Z,7.30
2023-05-17T10:24:07.965Z,4.80
2023-05-17T10:29:11.123Z,4.80
2023-05-17T10:34:16.667Z,4.47
2023-05-17T10:39:19.432Z,5.03
2023-05-17T10:44:22.957Z,6.07
2023-05-17T10:49:28.211Z,5.43
2023-05-17T10:54:37.358Z,7.38
2023-05-17T10:59:56.327Z,4.03
2023-05-17T11:05:00.528Z,7.90
2023-05-17T11:10:11.202Z,7.88
2023-05-17T11:15:14.690Z,5.38
2023-05-17T11:20:37.936Z,5.38
2023-05-17T11:25:41.068Z,7.30
2023-05-17T11:30:51.073Z,8.55
2023-05-17T11:35:55.855Z,3.30
2023-05-17T11:40:58.688Z,4.03
2023-05-17T11:46:02.404Z,6.28
2023-05-17T11:51:07.375Z,6.60
2023-05-17T11:56:11.469Z,6.28
2023-05-17T12:01:15.094Z,3.17
2023-05-17T12:06:19.225Z,6.05
2023-05-17T12:11:22.701Z,3.58
2023-05-17T12:16:26.939Z,4.45
2023-05-17T12:21:36.083Z,4.80
2023-05-17T12:26:43.794Z,4.68
2023-05-17T12:31:49.442Z,7.63
2023-05-17T12:36:53.958Z,6.40
2023-05-17T12:41:57.231Z,4.50
2023-05-17T12:47:03.204Z,2.67
2023-05-17T12:52:07.657Z,7.97
2023-05-17T12:57:13.770Z,5.63
2023-05-17T13:02:16.777Z,7.57
2023-05-17T13:07:24.902Z,4.30
2023-05-17T13:12:27.601Z,5.70
2023-05-17T13:17:36.366Z,3.00
2023-05-17T13:22:46.356Z,7.20
2023-05-17T13:27:49.530Z,3.78
2023-05-17T13:32:52.209Z,5.68
2023-05-17T13:37:57.837Z,2.70
2023-05-17T13:43:00.492Z,7.03
2023-05-17T13:48:03.208Z,5.57
2023-05-17T13:53:07.587Z,4.75
2023-05-17T13:58:10.455Z,3.92
2023-05-17T14:03:13.566Z,4.80
2023-05-17T14:08:17.803Z,6.80
2023-05-17T14:13:20.495Z,6.03
2023-05-17T14:18:23.560Z,7.28
2023-05-17T14:23:27.709Z,7.10
2023-05-17T14:28:30.355Z,4.15
2023-05-17T14:33:33.134Z,4.50
2023-05-17T14:38:38.378Z,6.55
2023-05-17T14:43:41.161Z,3.63
2023-05-17T14:48:43.820Z,3.80
2023-05-17T14:53:47.993Z,6.07
2023-05-17T14:58:51.116Z,5.90
2023-05-17T15:03:53.915Z,4.57
2023-05-17T15:08:58.443Z,4.13
2023-05-17T15:14:02.187Z,8.05
2023-05-17T15:19:05.141Z,5.30
2023-05-17T15:24:11.696Z,4.68
2023-05-17T15:29:16.019Z,8.00
2023-05-17T15:34:18.749Z,6.95
2023-05-17T15:39:22.818Z,6.82
2023-05-17T15:44:25.652Z,3.85
2023-05-17T15:49:28.402Z,6.78
2023-05-17T15:54:32.511Z,5.00
2023-05-17T15:59:35.258Z,4.57
2023-05-17T16:04:38.019Z,6.40
2023-05-17T16:09:42.002Z,5.90
2023-05-17T16:14:44.938Z,3.90
2023-05-17T16:19:47.510Z,5.03
2023-05-17T16:24:55.234Z,3.97
2023-05-17T16:29:57.912Z,8.18
2023-05-17T16:35:01.281Z,3.25
2023-05-17T16:40:05.668Z,4.88
2023-05-17T16:45:09.000Z,4.28
2023-05-17T16:50:13.428Z,4.47
2023-05-17T16:55:17.917Z,5.20
2023-05-17T17:00:21.416Z,4.47
2023-05-17T17:05:24.096Z,4.07
2023-05-17T17:10:28.340Z,3.25
2023-05-17T17:15:31.076Z,3.75
2023-05-17T17:20:33.832Z,4.22
2023-05-17T17:25:37.803Z,5.53
2023-05-17T17:30:40.543Z,5.18
2023-05-17T17:35:43.125Z,5.15
2023-05-17T17:40:47.064Z,6.22
2023-05-17T17:45:49.962Z,5.85
2023-05-17T17:50:52.713Z,5.60
2023-05-17T17:55:56.663Z,5.20
2023-05-17T18:00:59.326Z,6.18
2023-05-17T18:06:02.091Z,8.20
2023-05-17T18:11:06.208Z,8.65
2023-05-17T18:16:08.868Z,7.38
2023-05-17T18:21:12.608Z,7.32
2023-05-17T18:26:16.752Z,7.75
2023-05-17T18:31:19.440Z,9.45
2023-05-17T18:36:22.014Z,9.02
2023-05-17T18:41:26.105Z,12.50
2023-05-17T18:46:29.475Z,7.53
2023-05-17T18:51:32.564Z,11.30
2023-05-17T18:56:36.494Z,10.32
2023-05-17T19:01:39.443Z,10.68
2023-05-17T19:06:42.462Z,10.88
2023-05-17T19:11:46.430Z,10.07
2023-05-17T19:16:50.182Z,9.43
2023-05-17T19:21:52.944Z,12.93
2023-05-17T19:26:56.926Z,9.93
2023-05-17T19:31:59.520Z,11.57
2023-05-17T19:37:02.211Z,10.02
2023-05-17T19:42:06.561Z,12.30
2023-05-17T19:47:09.236Z,11.05
2023-05-17T19:52:12.379Z,10.63
2023-05-17T19:57:16.586Z,11.63
2023-05-17T20:02:19.401Z,11.00
2023-05-17T20:07:25.963Z,8.00
2023-05-17T20:12:30.058Z,8.13
2023-05-17T20:17:33.008Z,8.40
2023-05-17T20:22:37.249Z,10.05
2023-05-17T20:27:41.319Z,11.52
2023-05-17T20:32:43.980Z,10.02
2023-05-17T20:37:46.631Z,17.15
2023-05-17T20:42:52.998Z,21.10
2023-05-17T20:47:55.625Z,16.67
2023-05-17T20:52:58.219Z,17.60
2023-05-17T20:58:02.162Z,12.80
2023-05-17T21:03:05.008Z,15.75
2023-05-17T21:08:08.230Z,12.00
2023-05-17T21:13:14.419Z,10.57
2023-05-17T21:18:17.052Z,8.90
2023-05-17T21:23:22.408Z,7.95
2023-05-17T21:28:26.469Z,8.60
2023-05-17T21:33:29.125Z,8.55
2023-05-17T21:38:31.700Z,8.05
2023-05-17T21:43:35.765Z,9.13
2023-05-17T21:48:39.138Z,9.35
2023-05-17T21:53:41.751Z,9.07
2023-05-17T21:58:45.820Z,10.38
2023-05-17T22:03:50.747Z,8.18
2023-05-17T22:08:53.395Z,11.15
2023-05-17T22:13:58.160Z,11.82
2023-05-17T22:19:01.268Z,10.10
2023-05-17T22:24:03.992Z,8.02
2023-05-17T22:29:08.047Z,7.90
2023-05-17T22:34:10.724Z,10.15
2023-05-17T22:39:13.416Z,8.15
2023-05-17T22:44:18.026Z,8.95
2023-05-17T22:49:20.974Z,7.40
2023-05-17T22:54:23.541Z,5.63
2023-05-17T22:59:27.574Z,6.10
2023-05-17T23:04:30.605Z,6.63
2023-05-17T23:09:34.059Z,8.32
2023-05-17T23:14:38.020Z,7.40
2023-05-17T23:19:40.894Z,5.07
2023-05-17T23:24:43.595Z,6.57
2023-05-17T23:29:47.628Z,4.55
2023-05-17T23:34:50.314Z,5.82
2023-05-17T23:39:52.926Z,6.38
2023-05-17T23:44:56.954Z,5.10
2023-05-17T23:49:59.536Z,4.60
2023-05-17T23:55:03.208Z,5.43
